Alfa Baltica — C6BM8 — position and weather

sailwx.info

Track history (hours):
 
Tides and Currents Weather Stations Pressure Air Temp Water Temp Dewpoint Dewpoint Depression Visibility Wind Speed Wind Dir Waves Ship Positions

Alfa Baltica

Last reported at 2017-Sep-21 19:05 UTC. Time now 2017-Sep-23 16:35 UTC.
Position N 52°20' E 003°18'.

Length 229 m; draft 8.2 m.

Type: Tanker. MMSI: 311000306.

Date/timePositionNaut miles runAvg speedWind from/ knotsBaromVisibWave heightAir tempDewpointWater temp
2017-Sep-21 19:05N 52°20' E 003°18'17 7.3
2017-Sep-21 16:42N 52°07' E 003°37'2 6.6
2017-Sep-21 16:24N 52°07' E 003°40'2 4.8
2017-Sep-21 16:01N 52°08' E 003°42'0 0.6
2017-Sep-21 15:26N 52°08' E 003°43'0 0.0
2017-Sep-21 14:59N 52°08' E 003°43'0 0.0
2017-Sep-21 14:29N 52°08' E 003°43'0 0.0
2017-Sep-21 13:59N 52°08' E 003°43'0 0.0
2017-Sep-21 13:29N 52°08' E 003°43'0 0.0
2017-Sep-21 12:59N 52°08' E 003°43'0 0.1
2017-Sep-21 12:29N 52°08' E 003°42'0 0.0
2017-Sep-21 11:56N 52°08' E 003°42'0 0.1
2017-Sep-21 11:29N 52°08' E 003°42'0 0.2
2017-Sep-21 10:59N 52°08' E 003°42'0 0.1
2017-Sep-21 10:26N 52°08' E 003°42'0 0.1
2017-Sep-21 09:59N 52°08' E 003°42'0 0.0
2017-Sep-21 09:29N 52°08' E 003°42'0 0.0
2017-Sep-21 08:59N 52°08' E 003°42'0 0.1
2017-Sep-21 08:26N 52°08' E 003°42'0 0.1
2017-Sep-21 07:59N 52°08' E 003°42'0 0.1
2017-Sep-21 07:29N 52°08' E 003°42'0 0.1
2017-Sep-21 06:59N 52°08' E 003°42'0 0.0
2017-Sep-21 06:29N 52°08' E 003°42'0 0.0
2017-Sep-21 05:59N 52°08' E 003°42'0 0.1
2017-Sep-21 05:29N 52°08' E 003°43'0 0.0
2017-Sep-21 04:59N 52°08' E 003°42'0 0.1
2017-Sep-21 04:29N 52°08' E 003°43'0 0.0
2017-Sep-21 03:56N 52°08' E 003°43'0 0.0
2017-Sep-21 03:29N 52°08' E 003°43'0 0.0
2017-Sep-21 02:59N 52°08' E 003°43'0 0.0
2017-Sep-21 02:29N 52°08' E 003°43'0 0.0
2017-Sep-21 01:59N 52°08' E 003°43'0 0.0
2017-Sep-21 01:26N 52°08' E 003°43'0 0.0
2017-Sep-21 00:59N 52°08' E 003°43'0 0.1
2017-Sep-21 00:26N 52°08' E 003°42'0 0.1
2017-Sep-20 23:59N 52°08' E 003°42'0 0.1
2017-Sep-20 23:29N 52°08' E 003°43'0 0.2
2017-Sep-20 22:59N 52°08' E 003°42'0 0.1
2017-Sep-20 22:29N 52°08' E 003°42'0 0.1
2017-Sep-20 21:56N 52°08' E 003°42'0 0.0
2017-Sep-20 21:29N 52°08' E 003°42'0 0.0
2017-Sep-20 20:59N 52°08' E 003°42'0 0.0
2017-Sep-20 20:26N 52°08' E 003°42'0 0.1
2017-Sep-20 19:56N 52°08' E 003°42'0 0.2
2017-Sep-20 19:26N 52°08' E 003°43'0 0.2
2017-Sep-20 18:59N 52°08' E 003°43'0 0.1
2017-Sep-20 18:29N 52°08' E 003°43'0 0.0
2017-Sep-20 17:59N 52°08' E 003°43'0 0.0
2017-Sep-20 17:29N 52°08' E 003°43'0 0.0
2017-Sep-20 16:44N 52°08' E 003°43'0 0.0
2017-Sep-20 16:26N 52°08' E 003°43'0 0.0
2017-Sep-20 15:59N 52°08' E 003°43'0 0.0
2017-Sep-20 15:26N 52°08' E 003°43'0 0.1
2017-Sep-20 14:56N 52°08' E 003°43'0 0.0
2017-Sep-20 13:56N 52°08' E 003°43'0 0.0
2017-Sep-20 13:29N 52°08' E 003°43'0 0.0
2017-Sep-20 12:59N 52°08' E 003°43'0 0.0
2017-Sep-20 12:20N 52°08' E 003°43'0 0.1
2017-Sep-20 11:50N 52°08' E 003°43'0 0.2
2017-Sep-20 11:14N 52°08' E 003°42'0 0.1
2017-Sep-20 10:59N 52°08' E 003°42'0 0.1
2017-Sep-20 10:23N 52°08' E 003°42'0 0.1
2017-Sep-20 09:59N 52°08' E 003°42'0 0.0
2017-Sep-20 09:26N 52°08' E 003°42'0 0.0
2017-Sep-20 08:56N 52°08' E 003°42'0 0.0
2017-Sep-20 08:29N 52°08' E 003°42'0 0.0
2017-Sep-20 07:56N 52°08' E 003°42'0 0.1
2017-Sep-20 07:14N 52°08' E 003°42'0 0.1
2017-Sep-20 06:59N 52°08' E 003°42'0 0.1
2017-Sep-20 06:23N 52°08' E 003°43'0 0.1
2017-Sep-20 05:56N 52°08' E 003°43'0 0.1
2017-Sep-20 04:59N 52°08' E 003°43'0 0.0
2017-Sep-20 04:29N 52°08' E 003°43'0 0.0
2017-Sep-20 03:53N 52°08' E 003°43'0 0.1
2017-Sep-20 03:26N 52°08' E 003°43'0 0.0
2017-Sep-20 02:59N 52°08' E 003°43'0 0.0
2017-Sep-20 02:29N 52°08' E 003°43'0 0.1
2017-Sep-20 01:59N 52°08' E 003°43'0 0.1
2017-Sep-20 01:29N 52°08' E 003°42'0 0.1
2017-Sep-20 00:59N 52°08' E 003°43'0 0.1
2017-Sep-20 00:29N 52°08' E 003°43'0 0.1
2017-Sep-19 23:50N 52°08' E 003°43'0 0.2
2017-Sep-19 23:29N 52°08' E 003°42'0 0.2
2017-Sep-19 22:59N 52°08' E 003°42'0 0.1
2017-Sep-19 22:26N 52°08' E 003°42'0 0.0
2017-Sep-19 21:59N 52°08' E 003°42'0 0.0
2017-Sep-19 21:29N 52°08' E 003°42'0 0.0
2017-Sep-19 20:59N 52°08' E 003°42'0 0.0
2017-Sep-19 20:29N 52°08' E 003°42'0 0.0
2017-Sep-19 19:59N 52°08' E 003°42'0 0.0
2017-Sep-19 19:29N 52°08' E 003°42'0 0.0
2017-Sep-19 18:59N 52°08' E 003°42'0 0.1
2017-Sep-19 18:26N 52°08' E 003°42'0 0.0
2017-Sep-19 17:59N 52°08' E 003°42'0 0.0
2017-Sep-19 17:29N 52°08' E 003°42'0 0.1
2017-Sep-19 16:59N 52°08' E 003°42'0 0.1
2017-Sep-19 16:29N 52°08' E 003°42'0 0.1
2017-Sep-19 15:59N 52°08' E 003°42'0 0.1
2017-Sep-19 15:29N 52°08' E 003°42'0 0.0
2017-Sep-19 14:59N 52°08' E 003°42'0 0.0
2017-Sep-19 14:29N 52°08' E 003°42'0 0.0
2017-Sep-19 13:50N 52°08' E 003°42'0 0.0
2017-Sep-19 13:29N 52°08' E 003°42'0 0.0
2017-Sep-19 12:56N 52°08' E 003°42'0 0.1
2017-Sep-19 12:08N 52°08' E 003°42'0 0.1
2017-Sep-19 11:56N 52°08' E 003°43'0 0.2
2017-Sep-19 11:23N 52°08' E 003°42'0 0.1
2017-Sep-19 10:59N 52°08' E 003°42'0 0.0
2017-Sep-19 10:29N 52°08' E 003°42'0 0.0
2017-Sep-19 09:59N 52°08' E 003°42'0 0.0
2017-Sep-19 09:29N 52°08' E 003°42'0 0.0
2017-Sep-19 08:59N 52°08' E 003°42'0 0.0
2017-Sep-19 08:29N 52°08' E 003°42'0 0.0
2017-Sep-19 07:56N 52°08' E 003°42'0 0.0
2017-Sep-19 07:29N 52°08' E 003°42'0 0.0
2017-Sep-19 06:59N 52°08' E 003°42'0 0.0
2017-Sep-19 06:26N 52°08' E 003°42'0 0.0
2017-Sep-19 05:59N 52°08' E 003°42'0 0.0
2017-Sep-19 05:26N 52°08' E 003°42'0 0.0
2017-Sep-19 04:59N 52°08' E 003°42'0 0.1
2017-Sep-19 04:29N 52°08' E 003°42'0 0.2
2017-Sep-19 03:50N 52°08' E 003°42'0 0.1
2017-Sep-19 03:26N 52°08' E 003°42'0 0.0
2017-Sep-19 02:32N 52°08' E 003°42'0 0.0
2017-Sep-19 02:20N 52°08' E 003°42'0 0.0
2017-Sep-19 01:59N 52°08' E 003°42'0 0.0
2017-Sep-19 01:29N 52°08' E 003°42'0 0.0
2017-Sep-19 00:59N 52°08' E 003°42'0 0.0
2017-Sep-19 00:29N 52°08' E 003°42'0 0.1
2017-Sep-18 23:56N 52°08' E 003°43'0 0.1
2017-Sep-18 23:29N 52°08' E 003°43'0 0.0
2017-Sep-18 22:59N 52°08' E 003°43'0 0.1
2017-Sep-18 22:29N 52°08' E 003°42'0 0.1
2017-Sep-18 21:56N 52°08' E 003°42'0 0.0
2017-Sep-18 21:26N 52°08' E 003°42'0 0.0
2017-Sep-18 20:59N 52°08' E 003°42'0 0.1
2017-Sep-18 20:29N 52°08' E 003°42'0 0.0
2017-Sep-18 19:59N 52°08' E 003°42'0 0.0
2017-Sep-18 19:29N 52°08' E 003°42'0 0.0
2017-Sep-18 18:56N 52°08' E 003°42'0 0.1
2017-Sep-18 18:26N 52°08' E 003°42'0 0.0
2017-Sep-18 17:47N 52°08' E 003°42'0 0.1
2017-Sep-18 17:29N 52°08' E 003°42'0 0.0
2017-Sep-18 16:59N 52°08' E 003°42'0 0.1
2017-Sep-18 16:29N 52°08' E 003°42'0 0.1
2017-Sep-18 15:08N 52°08' E 003°43'0 0.0
2017-Sep-18 14:44N 52°08' E 003°43'0 0.1
2017-Sep-18 14:29N 52°08' E 003°43'0 0.0
2017-Sep-18 13:56N 52°08' E 003°43'0 0.1
2017-Sep-18 13:26N 52°08' E 003°43'0 0.0
2017-Sep-18 12:59N 52°08' E 003°42'0 0.0
2017-Sep-18 12:29N 52°08' E 003°43'0 0.0
2017-Sep-18 11:53N 52°08' E 003°43'0 0.1
2017-Sep-18 11:14N 52°08' E 003°43'0 0.0
2017-Sep-18 10:47N 52°08' E 003°43'0 0.1
2017-Sep-18 10:20N 52°08' E 003°43'0 0.0
2017-Sep-18 09:47N 52°08' E 003°42'0 0.1
2017-Sep-18 09:26N 52°08' E 003°42'0 0.2
2017-Sep-18 09:00N 52°08' E 003°42'1 1.4
2017-Sep-18 08:31N 52°07' E 003°42'2 4.9
2017-Sep-18 08:01N 52°05' E 003°44'611.5
2017-Sep-18 07:31N 52°02' E 003°53'510.2
2017-Sep-18 07:01N 52°00' E 004°00'511.0
2017-Sep-18 06:31N 51°58' E 004°08'1 3.0
2017-Sep-18 06:01N 51°56' E 004°10'0 0.0
2017-Sep-18 05:28N 51°56' E 004°10'0 0.0
2017-Sep-18 04:58N 51°56' E 004°10'0 0.0
2017-Sep-18 04:28N 51°56' E 004°10'0 0.0
2017-Sep-18 03:58N 51°56' E 004°10'0 0.0
2017-Sep-18 03:28N 51°56' E 004°10'0 0.0
2017-Sep-18 02:58N 51°56' E 004°10'0 0.0
2017-Sep-18 02:25N 51°56' E 004°10'0 0.0
2017-Sep-18 01:58N 51°56' E 004°10'0 0.0
2017-Sep-18 01:28N 51°56' E 004°10'0 0.0
2017-Sep-18 00:58N 51°56' E 004°10'0 0.0
2017-Sep-18 00:28N 51°56' E 004°10'0 0.0
2017-Sep-17 23:58N 51°56' E 004°10'0 0.0
2017-Sep-17 23:28N 51°56' E 004°10'0 0.0
2017-Sep-17 22:58N 51°56' E 004°10'0 0.0
2017-Sep-17 22:28N 51°56' E 004°10'0 0.0
2017-Sep-17 21:58N 51°56' E 004°10'0 0.0
2017-Sep-17 21:28N 51°56' E 004°10'0 0.0
2017-Sep-17 20:58N 51°56' E 004°10'0 0.0
2017-Sep-17 20:28N 51°56' E 004°10'0 0.0
2017-Sep-17 19:58N 51°56' E 004°10'0 0.0
2017-Sep-17 19:28N 51°56' E 004°10'0 0.0
2017-Sep-17 18:58N 51°56' E 004°10'0 0.0
2017-Sep-17 18:28N 51°56' E 004°10'0 0.0
2017-Sep-17 17:58N 51°56' E 004°10'0 0.0
2017-Sep-17 17:28N 51°56' E 004°10'0 0.0
2017-Sep-17 16:58N 51°56' E 004°10'0 0.0
2017-Sep-17 16:28N 51°56' E 004°10'0 0.0
2017-Sep-17 15:58N 51°56' E 004°10'0 0.0
2017-Sep-17 15:25N 51°56' E 004°10'0 0.0
2017-Sep-17 14:58N 51°56' E 004°10'0 0.0
2017-Sep-17 14:28N 51°56' E 004°10'0 0.0
2017-Sep-17 13:58N 51°56' E 004°10'0 0.0
2017-Sep-17 13:28N 51°56' E 004°10'0 0.0
2017-Sep-17 12:58N 51°56' E 004°10'0 0.0
2017-Sep-17 12:25N 51°56' E 004°10'0 0.0
2017-Sep-17 11:58N 51°56' E 004°10'0 0.0
2017-Sep-17 11:28N 51°56' E 004°10'0 0.0
2017-Sep-17 10:58N 51°56' E 004°10'0 0.0
2017-Sep-17 10:28N 51°56' E 004°10'0 0.0
2017-Sep-17 09:58N 51°56' E 004°10'0 0.0
2017-Sep-17 09:22N 51°56' E 004°10'0 0.0
2017-Sep-17 08:58N 51°56' E 004°10'0 0.0
2017-Sep-17 08:28N 51°56' E 004°10'0 0.0
2017-Sep-17 07:58N 51°56' E 004°10'0 0.0
2017-Sep-17 07:28N 51°56' E 004°10'0 0.0
2017-Sep-17 06:58N 51°56' E 004°10'0 0.0
2017-Sep-17 06:28N 51°56' E 004°10'0 0.0
2017-Sep-17 05:58N 51°56' E 004°10'0 0.0
2017-Sep-17 05:28N 51°56' E 004°10'0 0.0
2017-Sep-17 04:55N 51°56' E 004°10'0 0.0
2017-Sep-17 04:28N 51°56' E 004°10'0 0.0
2017-Sep-17 03:58N 51°56' E 004°10'0 0.0
2017-Sep-17 03:28N 51°56' E 004°10'0 0.0
2017-Sep-17 02:58N 51°56' E 004°10'0 0.0
2017-Sep-17 02:28N 51°56' E 004°10'0 0.0
2017-Sep-17 01:58N 51°56' E 004°10'0 0.0
2017-Sep-17 01:30N 51°56' E 004°10'0 0.0
2017-Sep-17 01:00N 51°56' E 004°10'0 0.7
2017-Sep-17 00:30N 51°57' E 004°10'2 3.4
2017-Sep-17 00:00N 51°58' E 004°08'5 9.4
2017-Sep-16 23:31N 51°60' E 004°01'611.7
2017-Sep-16 23:01N 52°00' E 003°51'510.4
2017-Sep-16 22:30N 51°59' E 003°43'510.7
2017-Sep-16 22:00N 51°58' E 003°34'18910.8
2017-Sep-16 04:38N 54°34' E 000°37'111.5
2017-Sep-16 04:30N 54°35' E 000°36'711.6
2017-Sep-16 03:54N 54°39' E 000°27'511.7
2017-Sep-16 03:30N 54°43' E 000°21'611.8
2017-Sep-16 03:00N 54°47' E 000°14'611.9
2017-Sep-16 02:30N 54°51' E 000°06'5212.2
2017-Sep-15 22:14N 55°27' W 000°60'312.5
2017-Sep-15 22:00N 55°29' W 001°04'612.5
2017-Sep-15 21:30N 55°33' W 001°12'612.4
2017-Sep-15 20:59N 55°37' W 001°20'612.6
2017-Sep-15 20:30N 55°42' W 001°28'612.5
2017-Sep-15 20:00N 55°46' W 001°36'612.2
2017-Sep-15 19:30N 55°50' W 001°44'612.2
2017-Sep-15 19:00N 55°54' W 001°52'612.0
2017-Sep-15 18:30N 55°57' W 002°01'611.8
2017-Sep-15 18:00N 56°01' W 002°09'611.6
2017-Sep-15 17:31N 56°04' W 002°18'5 9.2
2017-Sep-15 17:00N 56°06' W 002°25'0 0.8
2017-Sep-15 16:30N 56°06' W 002°26'0 0.2
2017-Sep-15 15:59N 56°05' W 002°26'0 0.0
2017-Sep-15 15:29N 56°05' W 002°26'0 0.1
2017-Sep-15 14:59N 56°05' W 002°26'0 0.0
2017-Sep-15 14:29N 56°05' W 002°26'0 0.1
2017-Sep-15 13:59N 56°05' W 002°26'0 0.0
2017-Sep-15 13:29N 56°05' W 002°26'0 0.1
2017-Sep-15 12:59N 56°05' W 002°26'0 0.0
2017-Sep-15 12:29N 56°05' W 002°26'0 0.0
2017-Sep-15 11:59N 56°05' W 002°26'0 0.0
2017-Sep-15 11:29N 56°05' W 002°26'0 0.0
2017-Sep-15 10:59N 56°05' W 002°26'0 0.0
2017-Sep-15 10:29N 56°05' W 002°26'0 0.0
2017-Sep-15 09:59N 56°05' W 002°26'0 0.0
2017-Sep-15 09:29N 56°05' W 002°26'0 0.0
2017-Sep-15 08:59N 56°05' W 002°26'0 0.1
2017-Sep-15 08:29N 56°05' W 002°26'0 0.0
2017-Sep-15 07:59N 56°05' W 002°26'0 0.1
2017-Sep-15 07:29N 56°05' W 002°26'0 0.1
2017-Sep-15 06:59N 56°05' W 002°26'0 0.0
2017-Sep-15 06:29N 56°05' W 002°26'0 0.0
2017-Sep-15 05:59N 56°05' W 002°26'0 0.0
2017-Sep-15 05:29N 56°05' W 002°26'0 0.0
2017-Sep-15 04:59N 56°05' W 002°26'0 0.0
2017-Sep-15 04:29N 56°05' W 002°26'0 0.0
2017-Sep-15 03:59N 56°05' W 002°26'0 0.1
2017-Sep-15 03:28N 56°05' W 002°26'0 0.0
2017-Sep-15 02:59N 56°05' W 002°26'0 0.0
2017-Sep-15 02:29N 56°05' W 002°26'0 0.1
2017-Sep-15 01:59N 56°05' W 002°26'0 0.2
2017-Sep-15 01:28N 56°05' W 002°26'0 0.3
2017-Sep-15 01:00N 56°05' W 002°26'3 6.2
2017-Sep-15 00:30N 56°05' W 002°31'611.6
2017-Sep-15 00:00N 56°06' W 002°41'611.7
2017-Sep-14 23:30N 56°05' W 002°52'611.5
2017-Sep-14 23:00N 56°03' W 003°02'4 8.8
2017-Sep-14 22:30N 56°03' W 003°10'3 6.9
2017-Sep-14 22:00N 56°02' W 003°15'3 6.9
2017-Sep-14 21:30N 56°01' W 003°21'1 0.0
2017-Sep-13 20:35N 56°00' W 003°22'0 0.0
2017-Sep-13 20:30N 56°00' W 003°22'0 0.2
2017-Sep-13 19:59N 56°00' W 003°22'2 4.2
2017-Sep-13 19:30N 56°01' W 003°18'4 8.8
2017-Sep-13 19:00N 56°03' W 003°11'611.8
2017-Sep-13 18:30N 56°04' W 003°01'2 3.2
2017-Sep-13 18:00N 56°04' W 002°58'1 2.2
2017-Sep-13 17:30N 56°03' W 002°57'0 0.4
2017-Sep-13 16:58N 56°03' W 002°57'0 0.1
2017-Sep-13 16:28N 56°03' W 002°56'0 0.3
2017-Sep-13 15:58N 56°03' W 002°56'0 0.2
2017-Sep-13 15:28N 56°03' W 002°56'0 0.0
2017-Sep-13 14:58N 56°03' W 002°56'0 0.2
2017-Sep-13 14:29N 56°03' W 002°56'0 0.1
2017-Sep-13 13:59N 56°03' W 002°56'0 0.3
2017-Sep-13 13:28N 56°03' W 002°56'0 0.0
2017-Sep-13 12:58N 56°03' W 002°56'0 0.0
2017-Sep-13 12:28N 56°03' W 002°56'0 0.0
2017-Sep-13 11:58N 56°03' W 002°56'0 0.0
2017-Sep-13 11:30N 56°03' W 002°56'0 0.0
2017-Sep-13 11:00N 56°03' W 002°56'0 0.0
2017-Sep-13 10:30N 56°03' W 002°56'0 0.0
2017-Sep-13 10:00N 56°03' W 002°56'0 0.5
2017-Sep-13 09:30N 56°03' W 002°57'2 3.6
2017-Sep-13 09:00N 56°05' W 002°54'3 5.1
2017-Sep-13 08:30N 56°06' W 002°50'3 6.0
2017-Sep-13 08:00N 56°06' W 002°45'3 6.3
2017-Sep-13 07:30N 56°07' W 002°40'3 6.2
2017-Sep-13 07:00N 56°08' W 002°34'3 6.3
2017-Sep-13 06:30N 56°07' W 002°28'3 5.8
2017-Sep-13 06:00N 56°07' W 002°23'2 4.6
2017-Sep-13 05:30N 56°08' W 002°19'4 7.7
2017-Sep-13 05:00N 56°08' W 002°12'5 9.4
2017-Sep-13 04:30N 56°05' W 002°05'5 9.7
2017-Sep-13 04:00N 56°02' W 001°59'5 9.8
2017-Sep-13 03:30N 55°59' W 001°52'510.3
2017-Sep-13 03:00N 55°56' W 001°45'510.5
2017-Sep-13 02:30N 55°53' W 001°37'510.8
2017-Sep-13 02:00N 55°50' W 001°29'611.1
2017-Sep-13 01:30N 55°46' W 001°21'611.2
2017-Sep-13 00:59N 55°43' W 001°13'611.1
2017-Sep-13 00:28N 55°39' W 001°05'271578.2
2017-Sep-13 00:00N 52°06' E 003°40'0 0.0
2017-Sep-12 23:30N 52°06' E 003°40'0 0.0
2017-Sep-12 23:00N 52°06' E 003°40'0 0.0
2017-Sep-12 22:30N 52°06' E 003°40'0 0.0
2017-Sep-12 22:00N 52°06' E 003°40'0 0.0
2017-Sep-12 21:30N 52°06' E 003°40'0 0.0
2017-Sep-12 21:00N 52°06' E 003°40'0 0.0
2017-Sep-12 20:29N 52°06' E 003°40'0 0.0
2017-Sep-12 20:00N 52°06' E 003°40'0 0.0
2017-Sep-12 19:30N 52°06' E 003°40'0 0.0
2017-Sep-12 19:00N 52°06' E 003°40'0 0.0
2017-Sep-12 18:30N 52°06' E 003°40'0 0.0
2017-Sep-12 18:00N 52°06' E 003°40'0 0.0
2017-Sep-12 17:30N 52°06' E 003°40'0 0.0
2017-Sep-12 17:00N 52°06' E 003°40'0 0.0
2017-Sep-12 16:30N 52°06' E 003°40'0 0.0
2017-Sep-12 16:00N 52°06' E 003°40'0 0.0
2017-Sep-12 15:30N 52°06' E 003°40'0 0.0
2017-Sep-12 15:00N 52°06' E 003°40'0 0.0
2017-Sep-12 14:30N 52°06' E 003°40'0 0.0
2017-Sep-12 14:00N 52°06' E 003°40'0 0.0
2017-Sep-12 13:30N 52°06' E 003°40'0 0.0
2017-Sep-12 13:00N 52°06' E 003°40'0 0.0
2017-Sep-12 12:30N 52°06' E 003°40'0 0.0
2017-Sep-12 12:00N 52°06' E 003°40'0 0.0
2017-Sep-12 11:30N 52°06' E 003°40'0 0.0
2017-Sep-12 11:00N 52°06' E 003°40'0 0.0
2017-Sep-12 10:30N 52°06' E 003°40'0 0.0
2017-Sep-12 10:00N 52°06' E 003°40'0 0.0
2017-Sep-12 09:30N 52°06' E 003°40'0 0.0
2017-Sep-12 09:00N 52°06' E 003°40'0 0.0
2017-Sep-12 08:30N 52°06' E 003°40'0 0.0
2017-Sep-12 08:00N 52°06' E 003°40'0 0.0
2017-Sep-12 07:30N 52°06' E 003°40'0 0.0
2017-Sep-12 07:00N 52°06' E 003°40'0 0.0
2017-Sep-12 06:30N 52°06' E 003°40'0 0.0
2017-Sep-12 06:00N 52°06' E 003°40'0 0.0
2017-Sep-12 05:30N 52°06' E 003°40'0 0.0
2017-Sep-12 05:00N 52°06' E 003°40'0 0.0
2017-Sep-12 04:30N 52°06' E 003°40'0 0.0
2017-Sep-12 04:00N 52°06' E 003°40'0 0.0
2017-Sep-12 03:30N 52°06' E 003°40'0 0.0
2017-Sep-12 03:00N 52°06' E 003°40'0 0.0
2017-Sep-12 02:30N 52°06' E 003°40'0 0.0
2017-Sep-12 02:00N 52°06' E 003°40'0 0.0
2017-Sep-12 01:30N 52°06' E 003°40'0 0.0
2017-Sep-12 01:00N 52°06' E 003°40'0 0.0
2017-Sep-12 00:30N 52°06' E 003°40'0 0.0
2017-Sep-12 00:00N 52°06' E 003°40'0 0.0
2017-Sep-11 23:30N 52°06' E 003°40'0 0.0
2017-Sep-11 23:00N 52°06' E 003°40'0 0.0
2017-Sep-11 22:30N 52°06' E 003°40'0 0.0
2017-Sep-11 22:00N 52°06' E 003°40'0 0.0
2017-Sep-11 21:30N 52°06' E 003°40'3 6.3
2017-Sep-11 21:00N 52°05' E 003°44'4 8.5
2017-Sep-11 20:30N 52°04' E 003°51'3 6.9
2017-Sep-11 20:00N 52°02' E 003°56'5 9.8
2017-Sep-11 19:30N 51°60' E 004°03'  
Track history (hours):
 
Tides and Currents Weather Stations Pressure Air Temp Water Temp Dewpoint Dewpoint Depression Visibility Wind Speed Wind Dir Waves Ship Positions

Alfa Baltica

Last reported at 2017-Sep-21 19:05 UTC. Time now 2017-Sep-23 16:35 UTC.
Position N 52°20' E 003°18'.

Length 229 m; draft 8.2 m.

Type: Tanker. MMSI: 311000306.

Date/timePositionNaut miles runAvg speedWind from/ knotsBaromVisibWave heightAir tempDewpointWater temp
2017-Sep-21 19:05N 52°20' E 003°18'17 7.3
2017-Sep-21 16:42N 52°07' E 003°37'2 6.6
2017-Sep-21 16:24N 52°07' E 003°40'2 4.8
2017-Sep-21 16:01N 52°08' E 003°42'0 0.6
2017-Sep-21 15:26N 52°08' E 003°43'0 0.0
2017-Sep-21 14:59N 52°08' E 003°43'0 0.0
2017-Sep-21 14:29N 52°08' E 003°43'0 0.0
2017-Sep-21 13:59N 52°08' E 003°43'0 0.0
2017-Sep-21 13:29N 52°08' E 003°43'0 0.0
2017-Sep-21 12:59N 52°08' E 003°43'0 0.1
2017-Sep-21 12:29N 52°08' E 003°42'0 0.0
2017-Sep-21 11:56N 52°08' E 003°42'0 0.1
2017-Sep-21 11:29N 52°08' E 003°42'0 0.2
2017-Sep-21 10:59N 52°08' E 003°42'0 0.1
2017-Sep-21 10:26N 52°08' E 003°42'0 0.1
2017-Sep-21 09:59N 52°08' E 003°42'0 0.0
2017-Sep-21 09:29N 52°08' E 003°42'0 0.0
2017-Sep-21 08:59N 52°08' E 003°42'0 0.1
2017-Sep-21 08:26N 52°08' E 003°42'0 0.1
2017-Sep-21 07:59N 52°08' E 003°42'0 0.1
2017-Sep-21 07:29N 52°08' E 003°42'0 0.1
2017-Sep-21 06:59N 52°08' E 003°42'0 0.0
2017-Sep-21 06:29N 52°08' E 003°42'0 0.0
2017-Sep-21 05:59N 52°08' E 003°42'0 0.1
2017-Sep-21 05:29N 52°08' E 003°43'0 0.0
2017-Sep-21 04:59N 52°08' E 003°42'0 0.1
2017-Sep-21 04:29N 52°08' E 003°43'0 0.0
2017-Sep-21 03:56N 52°08' E 003°43'0 0.0
2017-Sep-21 03:29N 52°08' E 003°43'0 0.0
2017-Sep-21 02:59N 52°08' E 003°43'0 0.0
2017-Sep-21 02:29N 52°08' E 003°43'0 0.0
2017-Sep-21 01:59N 52°08' E 003°43'0 0.0
2017-Sep-21 01:26N 52°08' E 003°43'0 0.0
2017-Sep-21 00:59N 52°08' E 003°43'0 0.1
2017-Sep-21 00:26N 52°08' E 003°42'0 0.1
2017-Sep-20 23:59N 52°08' E 003°42'0 0.1
2017-Sep-20 23:29N 52°08' E 003°43'0 0.2
2017-Sep-20 22:59N 52°08' E 003°42'0 0.1
2017-Sep-20 22:29N 52°08' E 003°42'0 0.1
2017-Sep-20 21:56N 52°08' E 003°42'0 0.0
2017-Sep-20 21:29N 52°08' E 003°42'0 0.0
2017-Sep-20 20:59N 52°08' E 003°42'0 0.0
2017-Sep-20 20:26N 52°08' E 003°42'0 0.1
2017-Sep-20 19:56N 52°08' E 003°42'0 0.2
2017-Sep-20 19:26N 52°08' E 003°43'0 0.2
2017-Sep-20 18:59N 52°08' E 003°43'0 0.1
2017-Sep-20 18:29N 52°08' E 003°43'0 0.0
2017-Sep-20 17:59N 52°08' E 003°43'0 0.0
2017-Sep-20 17:29N 52°08' E 003°43'0 0.0
2017-Sep-20 16:44N 52°08' E 003°43'0 0.0
2017-Sep-20 16:26N 52°08' E 003°43'0 0.0
2017-Sep-20 15:59N 52°08' E 003°43'0 0.0
2017-Sep-20 15:26N 52°08' E 003°43'0 0.1
2017-Sep-20 14:56N 52°08' E 003°43'0 0.0
2017-Sep-20 13:56N 52°08' E 003°43'0 0.0
2017-Sep-20 13:29N 52°08' E 003°43'0 0.0
2017-Sep-20 12:59N 52°08' E 003°43'0 0.0
2017-Sep-20 12:20N 52°08' E 003°43'0 0.1
2017-Sep-20 11:50N 52°08' E 003°43'0 0.2
2017-Sep-20 11:14N 52°08' E 003°42'0 0.1
2017-Sep-20 10:59N 52°08' E 003°42'0 0.1
2017-Sep-20 10:23N 52°08' E 003°42'0 0.1
2017-Sep-20 09:59N 52°08' E 003°42'0 0.0
2017-Sep-20 09:26N 52°08' E 003°42'0 0.0
2017-Sep-20 08:56N 52°08' E 003°42'0 0.0
2017-Sep-20 08:29N 52°08' E 003°42'0 0.0
2017-Sep-20 07:56N 52°08' E 003°42'0 0.1
2017-Sep-20 07:14N 52°08' E 003°42'0 0.1
2017-Sep-20 06:59N 52°08' E 003°42'0 0.1
2017-Sep-20 06:23N 52°08' E 003°43'0 0.1
2017-Sep-20 05:56N 52°08' E 003°43'0 0.1
2017-Sep-20 04:59N 52°08' E 003°43'0 0.0
2017-Sep-20 04:29N 52°08' E 003°43'0 0.0
2017-Sep-20 03:53N 52°08' E 003°43'0 0.1
2017-Sep-20 03:26N 52°08' E 003°43'0 0.0
2017-Sep-20 02:59N 52°08' E 003°43'0 0.0
2017-Sep-20 02:29N 52°08' E 003°43'0 0.1
2017-Sep-20 01:59N 52°08' E 003°43'0 0.1
2017-Sep-20 01:29N 52°08' E 003°42'0 0.1
2017-Sep-20 00:59N 52°08' E 003°43'0 0.1
2017-Sep-20 00:29N 52°08' E 003°43'0 0.1
2017-Sep-19 23:50N 52°08' E 003°43'0 0.2
2017-Sep-19 23:29N 52°08' E 003°42'0 0.2
2017-Sep-19 22:59N 52°08' E 003°42'0 0.1
2017-Sep-19 22:26N 52°08' E 003°42'0 0.0
2017-Sep-19 21:59N 52°08' E 003°42'0 0.0
2017-Sep-19 21:29N 52°08' E 003°42'0 0.0
2017-Sep-19 20:59N 52°08' E 003°42'0 0.0
2017-Sep-19 20:29N 52°08' E 003°42'0 0.0
2017-Sep-19 19:59N 52°08' E 003°42'0 0.0
2017-Sep-19 19:29N 52°08' E 003°42'0 0.0
2017-Sep-19 18:59N 52°08' E 003°42'0 0.1
2017-Sep-19 18:26N 52°08' E 003°42'0 0.0
2017-Sep-19 17:59N 52°08' E 003°42'0 0.0
2017-Sep-19 17:29N 52°08' E 003°42'0 0.1
2017-Sep-19 16:59N 52°08' E 003°42'0 0.1
2017-Sep-19 16:29N 52°08' E 003°42'0 0.1
2017-Sep-19 15:59N 52°08' E 003°42'0 0.1
2017-Sep-19 15:29N 52°08' E 003°42'0 0.0
2017-Sep-19 14:59N 52°08' E 003°42'0 0.0
2017-Sep-19 14:29N 52°08' E 003°42'0 0.0
2017-Sep-19 13:50N 52°08' E 003°42'0 0.0
2017-Sep-19 13:29N 52°08' E 003°42'0 0.0
2017-Sep-19 12:56N 52°08' E 003°42'0 0.1
2017-Sep-19 12:08N 52°08' E 003°42'0 0.1
2017-Sep-19 11:56N 52°08' E 003°43'0 0.2
2017-Sep-19 11:23N 52°08' E 003°42'0 0.1
2017-Sep-19 10:59N 52°08' E 003°42'0 0.0
2017-Sep-19 10:29N 52°08' E 003°42'0 0.0
2017-Sep-19 09:59N 52°08' E 003°42'0 0.0
2017-Sep-19 09:29N 52°08' E 003°42'0 0.0
2017-Sep-19 08:59N 52°08' E 003°42'0 0.0
2017-Sep-19 08:29N 52°08' E 003°42'0 0.0
2017-Sep-19 07:56N 52°08' E 003°42'0 0.0
2017-Sep-19 07:29N 52°08' E 003°42'0 0.0
2017-Sep-19 06:59N 52°08' E 003°42'0 0.0
2017-Sep-19 06:26N 52°08' E 003°42'0 0.0
2017-Sep-19 05:59N 52°08' E 003°42'0 0.0
2017-Sep-19 05:26N 52°08' E 003°42'0 0.0
2017-Sep-19 04:59N 52°08' E 003°42'0 0.1
2017-Sep-19 04:29N 52°08' E 003°42'0 0.2
2017-Sep-19 03:50N 52°08' E 003°42'0 0.1
2017-Sep-19 03:26N 52°08' E 003°42'0 0.0
2017-Sep-19 02:32N 52°08' E 003°42'0 0.0
2017-Sep-19 02:20N 52°08' E 003°42'0 0.0
2017-Sep-19 01:59N 52°08' E 003°42'0 0.0
2017-Sep-19 01:29N 52°08' E 003°42'0 0.0
2017-Sep-19 00:59N 52°08' E 003°42'0 0.0
2017-Sep-19 00:29N 52°08' E 003°42'0 0.1
2017-Sep-18 23:56N 52°08' E 003°43'0 0.1
2017-Sep-18 23:29N 52°08' E 003°43'0 0.0
2017-Sep-18 22:59N 52°08' E 003°43'0 0.1
2017-Sep-18 22:29N 52°08' E 003°42'0 0.1
2017-Sep-18 21:56N 52°08' E 003°42'0 0.0
2017-Sep-18 21:26N 52°08' E 003°42'0 0.0
2017-Sep-18 20:59N 52°08' E 003°42'0 0.1
2017-Sep-18 20:29N 52°08' E 003°42'0 0.0
2017-Sep-18 19:59N 52°08' E 003°42'0 0.0
2017-Sep-18 19:29N 52°08' E 003°42'0 0.0
2017-Sep-18 18:56N 52°08' E 003°42'0 0.1
2017-Sep-18 18:26N 52°08' E 003°42'0 0.0
2017-Sep-18 17:47N 52°08' E 003°42'0 0.1
2017-Sep-18 17:29N 52°08' E 003°42'0 0.0
2017-Sep-18 16:59N 52°08' E 003°42'0 0.1
2017-Sep-18 16:29N 52°08' E 003°42'0 0.1
2017-Sep-18 15:08N 52°08' E 003°43'0 0.0
2017-Sep-18 14:44N 52°08' E 003°43'0 0.1
2017-Sep-18 14:29N 52°08' E 003°43'0 0.0
2017-Sep-18 13:56N 52°08' E 003°43'0 0.1
2017-Sep-18 13:26N 52°08' E 003°43'0 0.0
2017-Sep-18 12:59N 52°08' E 003°42'0 0.0
2017-Sep-18 12:29N 52°08' E 003°43'0 0.0
2017-Sep-18 11:53N 52°08' E 003°43'0 0.1
2017-Sep-18 11:14N 52°08' E 003°43'0 0.0
2017-Sep-18 10:47N 52°08' E 003°43'0 0.1
2017-Sep-18 10:20N 52°08' E 003°43'0 0.0
2017-Sep-18 09:47N 52°08' E 003°42'0 0.1
2017-Sep-18 09:26N 52°08' E 003°42'0 0.2
2017-Sep-18 09:00N 52°08' E 003°42'1 1.4
2017-Sep-18 08:31N 52°07' E 003°42'2 4.9
2017-Sep-18 08:01N 52°05' E 003°44'611.5
2017-Sep-18 07:31N 52°02' E 003°53'510.2
2017-Sep-18 07:01N 52°00' E 004°00'511.0
2017-Sep-18 06:31N 51°58' E 004°08'1 3.0
2017-Sep-18 06:01N 51°56' E 004°10'0 0.0
2017-Sep-18 05:28N 51°56' E 004°10'0 0.0
2017-Sep-18 04:58N 51°56' E 004°10'0 0.0
2017-Sep-18 04:28N 51°56' E 004°10'0 0.0
2017-Sep-18 03:58N 51°56' E 004°10'0 0.0
2017-Sep-18 03:28N 51°56' E 004°10'0 0.0
2017-Sep-18 02:58N 51°56' E 004°10'0 0.0
2017-Sep-18 02:25N 51°56' E 004°10'0 0.0
2017-Sep-18 01:58N 51°56' E 004°10'0 0.0
2017-Sep-18 01:28N 51°56' E 004°10'0 0.0
2017-Sep-18 00:58N 51°56' E 004°10'0 0.0
2017-Sep-18 00:28N 51°56' E 004°10'0 0.0
2017-Sep-17 23:58N 51°56' E 004°10'0 0.0
2017-Sep-17 23:28N 51°56' E 004°10'0 0.0
2017-Sep-17 22:58N 51°56' E 004°10'0 0.0
2017-Sep-17 22:28N 51°56' E 004°10'0 0.0
2017-Sep-17 21:58N 51°56' E 004°10'0 0.0
2017-Sep-17 21:28N 51°56' E 004°10'0 0.0
2017-Sep-17 20:58N 51°56' E 004°10'0 0.0
2017-Sep-17 20:28N 51°56' E 004°10'0 0.0
2017-Sep-17 19:58N 51°56' E 004°10'0 0.0
2017-Sep-17 19:28N 51°56' E 004°10'0 0.0
2017-Sep-17 18:58N 51°56' E 004°10'0 0.0
2017-Sep-17 18:28N 51°56' E 004°10'0 0.0
2017-Sep-17 17:58N 51°56' E 004°10'0 0.0
2017-Sep-17 17:28N 51°56' E 004°10'0 0.0
2017-Sep-17 16:58N 51°56' E 004°10'0 0.0
2017-Sep-17 16:28N 51°56' E 004°10'0 0.0
2017-Sep-17 15:58N 51°56' E 004°10'0 0.0
2017-Sep-17 15:25N 51°56' E 004°10'0 0.0
2017-Sep-17 14:58N 51°56' E 004°10'0 0.0
2017-Sep-17 14:28N 51°56' E 004°10'0 0.0
2017-Sep-17 13:58N 51°56' E 004°10'0 0.0
2017-Sep-17 13:28N 51°56' E 004°10'0 0.0
2017-Sep-17 12:58N 51°56' E 004°10'0 0.0
2017-Sep-17 12:25N 51°56' E 004°10'0 0.0
2017-Sep-17 11:58N 51°56' E 004°10'0 0.0
2017-Sep-17 11:28N 51°56' E 004°10'0 0.0
2017-Sep-17 10:58N 51°56' E 004°10'0 0.0
2017-Sep-17 10:28N 51°56' E 004°10'0 0.0
2017-Sep-17 09:58N 51°56' E 004°10'0 0.0
2017-Sep-17 09:22N 51°56' E 004°10'0 0.0
2017-Sep-17 08:58N 51°56' E 004°10'0 0.0
2017-Sep-17 08:28N 51°56' E 004°10'0 0.0
2017-Sep-17 07:58N 51°56' E 004°10'0 0.0
2017-Sep-17 07:28N 51°56' E 004°10'0 0.0
2017-Sep-17 06:58N 51°56' E 004°10'0 0.0
2017-Sep-17 06:28N 51°56' E 004°10'0 0.0
2017-Sep-17 05:58N 51°56' E 004°10'0 0.0
2017-Sep-17 05:28N 51°56' E 004°10'0 0.0
2017-Sep-17 04:55N 51°56' E 004°10'0 0.0
2017-Sep-17 04:28N 51°56' E 004°10'0 0.0
2017-Sep-17 03:58N 51°56' E 004°10'0 0.0
2017-Sep-17 03:28N 51°56' E 004°10'0 0.0
2017-Sep-17 02:58N 51°56' E 004°10'0 0.0
2017-Sep-17 02:28N 51°56' E 004°10'0 0.0
2017-Sep-17 01:58N 51°56' E 004°10'0 0.0
2017-Sep-17 01:30N 51°56' E 004°10'0 0.0
2017-Sep-17 01:00N 51°56' E 004°10'0 0.7
2017-Sep-17 00:30N 51°57' E 004°10'2 3.4
2017-Sep-17 00:00N 51°58' E 004°08'5 9.4
2017-Sep-16 23:31N 51°60' E 004°01'611.7
2017-Sep-16 23:01N 52°00' E 003°51'510.4
2017-Sep-16 22:30N 51°59' E 003°43'510.7
2017-Sep-16 22:00N 51°58' E 003°34'18910.8
2017-Sep-16 04:38N 54°34' E 000°37'111.5
2017-Sep-16 04:30N 54°35' E 000°36'711.6
2017-Sep-16 03:54N 54°39' E 000°27'511.7
2017-Sep-16 03:30N 54°43' E 000°21'611.8
2017-Sep-16 03:00N 54°47' E 000°14'611.9
2017-Sep-16 02:30N 54°51' E 000°06'5212.2
2017-Sep-15 22:14N 55°27' W 000°60'312.5
2017-Sep-15 22:00N 55°29' W 001°04'612.5
2017-Sep-15 21:30N 55°33' W 001°12'612.4
2017-Sep-15 20:59N 55°37' W 001°20'612.6
2017-Sep-15 20:30N 55°42' W 001°28'612.5
2017-Sep-15 20:00N 55°46' W 001°36'612.2
2017-Sep-15 19:30N 55°50' W 001°44'612.2
2017-Sep-15 19:00N 55°54' W 001°52'612.0
2017-Sep-15 18:30N 55°57' W 002°01'611.8
2017-Sep-15 18:00N 56°01' W 002°09'611.6
2017-Sep-15 17:31N 56°04' W 002°18'5 9.2
2017-Sep-15 17:00N 56°06' W 002°25'0 0.8
2017-Sep-15 16:30N 56°06' W 002°26'0 0.2
2017-Sep-15 15:59N 56°05' W 002°26'0 0.0
2017-Sep-15 15:29N 56°05' W 002°26'0 0.1
2017-Sep-15 14:59N 56°05' W 002°26'0 0.0
2017-Sep-15 14:29N 56°05' W 002°26'0 0.1
2017-Sep-15 13:59N 56°05' W 002°26'0 0.0
2017-Sep-15 13:29N 56°05' W 002°26'0 0.1
2017-Sep-15 12:59N 56°05' W 002°26'0 0.0
2017-Sep-15 12:29N 56°05' W 002°26'0 0.0
2017-Sep-15 11:59N 56°05' W 002°26'0 0.0
2017-Sep-15 11:29N 56°05' W 002°26'0 0.0
2017-Sep-15 10:59N 56°05' W 002°26'0 0.0
2017-Sep-15 10:29N 56°05' W 002°26'0 0.0
2017-Sep-15 09:59N 56°05' W 002°26'0 0.0
2017-Sep-15 09:29N 56°05' W 002°26'0 0.0
2017-Sep-15 08:59N 56°05' W 002°26'0 0.1
2017-Sep-15 08:29N 56°05' W 002°26'0 0.0
2017-Sep-15 07:59N 56°05' W 002°26'0 0.1
2017-Sep-15 07:29N 56°05' W 002°26'0 0.1
2017-Sep-15 06:59N 56°05' W 002°26'0 0.0
2017-Sep-15 06:29N 56°05' W 002°26'0 0.0
2017-Sep-15 05:59N 56°05' W 002°26'0 0.0
2017-Sep-15 05:29N 56°05' W 002°26'0 0.0
2017-Sep-15 04:59N 56°05' W 002°26'0 0.0
2017-Sep-15 04:29N 56°05' W 002°26'0 0.0
2017-Sep-15 03:59N 56°05' W 002°26'0 0.1
2017-Sep-15 03:28N 56°05' W 002°26'0 0.0
2017-Sep-15 02:59N 56°05' W 002°26'0 0.0
2017-Sep-15 02:29N 56°05' W 002°26'0 0.1
2017-Sep-15 01:59N 56°05' W 002°26'0 0.2
2017-Sep-15 01:28N 56°05' W 002°26'0 0.3
2017-Sep-15 01:00N 56°05' W 002°26'3 6.2
2017-Sep-15 00:30N 56°05' W 002°31'611.6
2017-Sep-15 00:00N 56°06' W 002°41'611.7
2017-Sep-14 23:30N 56°05' W 002°52'611.5
2017-Sep-14 23:00N 56°03' W 003°02'4 8.8
2017-Sep-14 22:30N 56°03' W 003°10'3 6.9
2017-Sep-14 22:00N 56°02' W 003°15'3 6.9
2017-Sep-14 21:30N 56°01' W 003°21'1 0.0
2017-Sep-13 20:35N 56°00' W 003°22'0 0.0
2017-Sep-13 20:30N 56°00' W 003°22'0 0.2
2017-Sep-13 19:59N 56°00' W 003°22'2 4.2
2017-Sep-13 19:30N 56°01' W 003°18'4 8.8
2017-Sep-13 19:00N 56°03' W 003°11'611.8
2017-Sep-13 18:30N 56°04' W 003°01'2 3.2
2017-Sep-13 18:00N 56°04' W 002°58'1 2.2
2017-Sep-13 17:30N 56°03' W 002°57'0 0.4
2017-Sep-13 16:58N 56°03' W 002°57'0 0.1
2017-Sep-13 16:28N 56°03' W 002°56'0 0.3
2017-Sep-13 15:58N 56°03' W 002°56'0 0.2
2017-Sep-13 15:28N 56°03' W 002°56'0 0.0
2017-Sep-13 14:58N 56°03' W 002°56'0 0.2
2017-Sep-13 14:29N 56°03' W 002°56'0 0.1
2017-Sep-13 13:59N 56°03' W 002°56'0 0.3
2017-Sep-13 13:28N 56°03' W 002°56'0 0.0
2017-Sep-13 12:58N 56°03' W 002°56'0 0.0
2017-Sep-13 12:28N 56°03' W 002°56'0 0.0
2017-Sep-13 11:58N 56°03' W 002°56'0 0.0
2017-Sep-13 11:30N 56°03' W 002°56'0 0.0
2017-Sep-13 11:00N 56°03' W 002°56'0 0.0
2017-Sep-13 10:30N 56°03' W 002°56'0 0.0
2017-Sep-13 10:00N 56°03' W 002°56'0 0.5
2017-Sep-13 09:30N 56°03' W 002°57'2 3.6
2017-Sep-13 09:00N 56°05' W 002°54'3 5.1
2017-Sep-13 08:30N 56°06' W 002°50'3 6.0
2017-Sep-13 08:00N 56°06' W 002°45'3 6.3
2017-Sep-13 07:30N 56°07' W 002°40'3 6.2
2017-Sep-13 07:00N 56°08' W 002°34'3 6.3
2017-Sep-13 06:30N 56°07' W 002°28'3 5.8
2017-Sep-13 06:00N 56°07' W 002°23'2 4.6
2017-Sep-13 05:30N 56°08' W 002°19'4 7.7
2017-Sep-13 05:00N 56°08' W 002°12'5 9.4
2017-Sep-13 04:30N 56°05' W 002°05'5 9.7
2017-Sep-13 04:00N 56°02' W 001°59'5 9.8
2017-Sep-13 03:30N 55°59' W 001°52'510.3
2017-Sep-13 03:00N 55°56' W 001°45'510.5
2017-Sep-13 02:30N 55°53' W 001°37'510.8
2017-Sep-13 02:00N 55°50' W 001°29'611.1
2017-Sep-13 01:30N 55°46' W 001°21'611.2
2017-Sep-13 00:59N 55°43' W 001°13'611.1
2017-Sep-13 00:28N 55°39' W 001°05'271578.2
2017-Sep-13 00:00N 52°06' E 003°40'0 0.0
2017-Sep-12 23:30N 52°06' E 003°40'0 0.0
2017-Sep-12 23:00N 52°06' E 003°40'0 0.0
2017-Sep-12 22:30N 52°06' E 003°40'0 0.0
2017-Sep-12 22:00N 52°06' E 003°40'0 0.0
2017-Sep-12 21:30N 52°06' E 003°40'0 0.0
2017-Sep-12 21:00N 52°06' E 003°40'0 0.0
2017-Sep-12 20:29N 52°06' E 003°40'0 0.0
2017-Sep-12 20:00N 52°06' E 003°40'0 0.0
2017-Sep-12 19:30N 52°06' E 003°40'0 0.0
2017-Sep-12 19:00N 52°06' E 003°40'0 0.0
2017-Sep-12 18:30N 52°06' E 003°40'0 0.0
2017-Sep-12 18:00N 52°06' E 003°40'0 0.0
2017-Sep-12 17:30N 52°06' E 003°40'0 0.0
2017-Sep-12 17:00N 52°06' E 003°40'0 0.0
2017-Sep-12 16:30N 52°06' E 003°40'0 0.0
2017-Sep-12 16:00N 52°06' E 003°40'0 0.0
2017-Sep-12 15:30N 52°06' E 003°40'0 0.0
2017-Sep-12 15:00N 52°06' E 003°40'0 0.0
2017-Sep-12 14:30N 52°06' E 003°40'0 0.0
2017-Sep-12 14:00N 52°06' E 003°40'0 0.0
2017-Sep-12 13:30N 52°06' E 003°40'0 0.0
2017-Sep-12 13:00N 52°06' E 003°40'0 0.0
2017-Sep-12 12:30N 52°06' E 003°40'0 0.0
2017-Sep-12 12:00N 52°06' E 003°40'0 0.0
2017-Sep-12 11:30N 52°06' E 003°40'0 0.0
2017-Sep-12 11:00N 52°06' E 003°40'0 0.0
2017-Sep-12 10:30N 52°06' E 003°40'0 0.0
2017-Sep-12 10:00N 52°06' E 003°40'0 0.0
2017-Sep-12 09:30N 52°06' E 003°40'0 0.0
2017-Sep-12 09:00N 52°06' E 003°40'0 0.0
2017-Sep-12 08:30N 52°06' E 003°40'0 0.0
2017-Sep-12 08:00N 52°06' E 003°40'0 0.0
2017-Sep-12 07:30N 52°06' E 003°40'0 0.0
2017-Sep-12 07:00N 52°06' E 003°40'0 0.0
2017-Sep-12 06:30N 52°06' E 003°40'0 0.0
2017-Sep-12 06:00N 52°06' E 003°40'0 0.0
2017-Sep-12 05:30N 52°06' E 003°40'0 0.0
2017-Sep-12 05:00N 52°06' E 003°40'0 0.0
2017-Sep-12 04:30N 52°06' E 003°40'0 0.0
2017-Sep-12 04:00N 52°06' E 003°40'0 0.0
2017-Sep-12 03:30N 52°06' E 003°40'0 0.0
2017-Sep-12 03:00N 52°06' E 003°40'0 0.0
2017-Sep-12 02:30N 52°06' E 003°40'0 0.0
2017-Sep-12 02:00N 52°06' E 003°40'0 0.0
2017-Sep-12 01:30N 52°06' E 003°40'0 0.0
2017-Sep-12 01:00N 52°06' E 003°40'0 0.0
2017-Sep-12 00:30N 52°06' E 003°40'0 0.0
2017-Sep-12 00:00N 52°06' E 003°40'0 0.0
2017-Sep-11 23:30N 52°06' E 003°40'0 0.0
2017-Sep-11 23:00N 52°06' E 003°40'0 0.0
2017-Sep-11 22:30N 52°06' E 003°40'0 0.0
2017-Sep-11 22:00N 52°06' E 003°40'0 0.0
2017-Sep-11 21:30N 52°06' E 003°40'3 6.3
2017-Sep-11 21:00N 52°05' E 003°44'4 8.5
2017-Sep-11 20:30N 52°04' E 003°51'3 6.9
2017-Sep-11 20:00N 52°02' E 003°56'5 9.8
2017-Sep-11 19:30N 51°60' E 004°03'  

Dump ship's entire track history